Time;durP1;ratioP1;P1;durP2;ratioP2;P2;SDS_P1;SDS_P2;PMS_P1;PMS_P2;Temp;Humidity;BMP_temperature;BMP_pressure;BME280_temperature;BME280_humidity;BME280_pressure;Samples;Min_cycle;Max_cycle;Signal;HPM_P1;HPM_P2
2021/07/29 00:00:52;;;;;;;3.62;1.75;;;18.60;99.90;;;;;;6701660;88;20259;-77
2021/07/29 00:10:52;;;;;;;4.37;2.10;;;18.50;99.90;;;;;;6701055;88;20201;-76
2021/07/29 00:20:53;;;;;;;3.08;1.80;;;18.50;99.90;;;;;;6701552;88;20197;-78
2021/07/29 00:30:53;;;;;;;3.75;1.75;;;18.50;99.90;;;;;;6700352;88;20635;-77
2021/07/29 00:40:54;;;;;;;3.25;1.73;;;18.40;99.90;;;;;;6699864;88;20237;-77
2021/07/29 00:50:55;;;;;;;6.10;1.80;;;18.40;99.90;;;;;;6699545;88;20198;-78
2021/07/29 01:00:55;;;;;;;3.50;1.85;;;18.20;99.90;;;;;;6699040;88;20202;-77
2021/07/29 01:10:56;;;;;;;3.42;1.90;;;18.20;99.90;;;;;;6698927;88;20274;-76
2021/07/29 01:20:57;;;;;;;6.47;2.20;;;18.00;99.90;;;;;;6699648;88;20206;-76
2021/07/29 01:30:57;;;;;;;4.45;2.20;;;18.00;99.90;;;;;;6699299;88;20251;-78
2021/07/29 01:40:58;;;;;;;4.07;2.12;;;18.00;99.90;;;;;;6699876;88;20610;-78
2021/07/29 01:50:58;;;;;;;4.20;2.03;;;18.00;99.90;;;;;;6699161;88;20226;-76
2021/07/29 02:00:59;;;;;;;7.50;2.30;;;17.70;99.90;;;;;;6698653;88;20656;-78
2021/07/29 02:11:03;;;;;;;5.70;2.33;;;17.60;99.90;;;;;;6698455;88;20190;-76
2021/07/29 02:21:24;;;;;;;4.95;2.55;;;17.50;99.90;;;;;;6732487;77;20243;-81
2021/07/29 02:31:24;;;;;;;5.75;2.22;;;17.40;99.90;;;;;;6753006;88;20162;-81
2021/07/29 02:41:25;;;;;;;3.65;2.10;;;17.30;99.90;;;;;;6751608;88;20224;-81
2021/07/29 02:51:26;;;;;;;4.28;2.17;;;17.20;99.90;;;;;;6752029;88;20267;-81
2021/07/29 03:01:27;;;;;;;8.40;2.90;;;16.90;99.90;;;;;;6751819;88;20189;-81
2021/07/29 03:11:28;;;;;;;4.53;2.58;;;16.70;99.90;;;;;;6747236;88;20184;-81
2021/07/29 03:21:28;;;;;;;3.42;2.33;;;16.50;99.90;;;;;;6729748;88;20284;-81
2021/07/29 03:31:29;;;;;;;4.18;2.45;;;16.50;99.90;;;;;;6731941;88;20182;-80
2021/07/29 03:41:29;;;;;;;4.70;2.67;;;16.10;99.90;;;;;;6731806;88;20179;-81
2021/07/29 03:51:30;;;;;;;4.55;2.60;;;16.00;99.90;;;;;;6733393;88;20339;-81
2021/07/29 04:01:31;;;;;;;4.40;2.58;;;15.80;99.90;;;;;;6734298;88;20224;-80
2021/07/29 04:11:31;;;;;;;4.97;2.70;;;15.70;99.90;;;;;;6734284;88;20246;-82
2021/07/29 04:21:32;;;;;;;4.22;2.45;;;15.90;99.90;;;;;;6697859;88;20654;-81
2021/07/29 04:31:32;;;;;;;4.72;2.50;;;16.20;99.90;;;;;;6697504;88;20295;-80
2021/07/29 04:41:37;;;;;;;3.70;2.28;;;16.40;99.90;;;;;;6694279;88;20458;-80
2021/07/29 04:51:39;;;;;;;6.00;2.77;;;16.50;99.90;;;;;;6726349;88;20334;-80
2021/07/29 05:01:39;;;;;;;6.65;2.70;;;16.50;99.90;;;;;;6730777;88;20190;-81
2021/07/29 05:11:40;;;;;;;6.53;2.23;;;16.60;99.90;;;;;;6710687;88;20191;-80
2021/07/29 05:21:41;;;;;;;4.45;2.42;;;16.80;99.90;;;;;;6729533;88;20208;-80
2021/07/29 05:31:42;;;;;;;7.75;2.58;;;16.90;99.90;;;;;;6733149;88;20169;-80
2021/07/29 05:41:42;;;;;;;5.45;2.30;;;17.00;99.90;;;;;;6732831;88;20338;-80
2021/07/29 05:51:43;;;;;;;5.62;2.53;;;17.00;99.90;;;;;;6729271;88;20190;-80
2021/07/29 06:01:43;;;;;;;5.18;2.80;;;17.10;99.90;;;;;;6729360;88;20809;-80
2021/07/29 06:11:44;;;;;;;4.12;2.58;;;17.10;99.90;;;;;;6732371;88;20303;-80
2021/07/29 06:21:46;;;;;;;6.35;2.65;;;17.50;99.90;;;;;;6713452;88;20297;-80
2021/07/29 06:31:46;;;;;;;7.00;2.75;;;17.70;99.90;;;;;;6713381;88;20189;-81
2021/07/29 06:41:47;;;;;;;5.80;2.20;;;18.40;99.90;;;;;;6702108;88;20174;-80
2021/07/29 06:51:47;;;;;;;11.48;2.30;;;18.80;99.90;;;;;;6728092;88;20186;-81
2021/07/29 07:01:48;;;;;;;4.90;2.10;;;19.50;99.90;;;;;;6731937;88;20189;-81
2021/07/29 07:11:49;;;;;;;6.95;2.12;;;20.50;99.90;;;;;;6733557;88;20255;-80
2021/07/29 07:21:49;;;;;;;2.78;1.80;;;20.00;99.90;;;;;;6734848;88;20901;-81
2021/07/29 07:31:50;;;;;;;4.55;1.75;;;19.90;99.90;;;;;;6734874;88;20178;-81
2021/07/29 07:41:51;;;;;;;4.47;1.97;;;20.30;99.90;;;;;;6734854;88;20170;-83
2021/07/29 07:51:52;;;;;;;3.53;1.55;;;20.30;99.90;;;;;;6734160;88;20219;-83
2021/07/29 08:01:52;;;;;;;4.43;1.73;;;20.50;99.90;;;;;;6709116;88;20234;-81
2021/07/29 08:11:53;;;;;;;4.90;1.40;;;20.60;99.90;;;;;;6709030;88;20202;-81
2021/07/29 08:21:53;;;;;;;5.05;1.80;;;20.70;99.90;;;;;;6699861;78;20707;-79
2021/07/29 08:31:54;;;;;;;3.00;1.02;;;21.00;99.90;;;;;;6701531;88;20295;-79
2021/07/29 08:41:54;;;;;;;3.50;1.30;;;21.00;99.90;;;;;;6689246;88;20677;-77
2021/07/29 08:51:55;;;;;;;3.73;1.30;;;20.70;99.90;;;;;;6667925;88;20654;-78
2021/07/29 09:01:57;;;;;;;3.95;1.20;;;21.20;99.90;;;;;;6705321;88;20182;-78
2021/07/29 09:12:17;;;;;;;3.65;1.10;;;20.90;99.90;;;;;;6705391;88;20342;-78
2021/07/29 09:22:27;;;;;;;3.65;1.05;;;21.20;99.50;;;;;;6706021;88;20665;-79
2021/07/29 09:32:27;;;;;;;2.83;1.00;;;20.90;98.70;;;;;;6723612;88;20234;-79
2021/07/29 09:42:28;;;;;;;2.30;1.00;;;20.90;99.50;;;;;;6688292;88;20213;-78
2021/07/29 09:52:31;;;;;;;2.70;0.93;;;21.50;97.80;;;;;;6669990;88;20309;-78
2021/07/29 10:02:31;;;;;;;4.32;1.08;;;20.80;98.70;;;;;;6614700;89;20248;-76
2021/07/29 10:12:32;;;;;;;4.70;1.40;;;21.80;98.20;;;;;;6613848;89;20185;-80
2021/07/29 10:22:33;;;;;;;3.45;1.30;;;21.00;99.20;;;;;;6665130;88;20186;-77
2021/07/29 10:32:53;;;;;;;3.60;1.12;;;22.70;96.90;;;;;;6700133;88;20307;-76
2021/07/29 10:42:53;;;;;;;2.85;1.08;;;21.80;96.20;;;;;;6701397;88;20211;-77
2021/07/29 10:52:54;;;;;;;3.93;1.10;;;21.80;96.60;;;;;;6703182;88;20247;-76
2021/07/29 11:02:56;;;;;;;3.33;1.00;;;22.10;96.10;;;;;;6704008;88;20227;-77
2021/07/29 11:12:57;;;;;;;3.33;1.02;;;21.50;96.30;;;;;;6702653;88;20216;-76
2021/07/29 11:22:57;;;;;;;2.77;1.00;;;21.70;95.50;;;;;;6702303;88;20250;-81
2021/07/29 11:32:58;;;;;;;4.22;1.15;;;22.70;95.40;;;;;;6698935;88;20185;-76
2021/07/29 11:42:58;;;;;;;4.18;1.25;;;23.00;92.30;;;;;;6700814;88;20335;-76
2021/07/29 11:52:59;;;;;;;7.05;1.10;;;22.20;93.20;;;;;;6698881;88;20285;-76
2021/07/29 12:03:01;;;;;;;2.83;1.20;;;22.30;92.90;;;;;;6698898;88;20651;-76
2021/07/29 12:13:01;;;;;;;2.83;1.10;;;22.80;92.00;;;;;;6700639;88;20567;-76
2021/07/29 12:23:10;;;;;;;2.53;1.05;;;23.40;90.80;;;;;;6700368;88;20272;-77
2021/07/29 12:33:18;;;;;;;3.55;1.10;;;22.70;90.60;;;;;;6699684;88;20220;-78
2021/07/29 12:43:25;;;;;;;3.53;1.33;;;22.20;91.80;;;;;;6700126;88;20198;-80
2021/07/29 12:53:25;;;;;;;3.47;1.27;;;22.30;91.90;;;;;;6700265;88;20680;-76
2021/07/29 13:03:31;;;;;;;2.80;1.10;;;22.10;92.70;;;;;;6700353;88;20599;-78
2021/07/29 13:13:33;;;;;;;3.10;1.30;;;22.90;91.60;;;;;;6699639;88;20688;-80
2021/07/29 13:23:35;;;;;;;3.58;1.20;;;22.50;91.70;;;;;;6699502;88;20246;-78
2021/07/29 13:33:36;;;;;;;4.65;1.20;;;23.70;90.90;;;;;;6698998;88;20197;-77
2021/07/29 13:43:37;;;;;;;5.30;1.23;;;23.50;90.70;;;;;;6699393;88;20645;-77
2021/07/29 13:53:38;;;;;;;3.72;1.00;;;23.30;89.00;;;;;;6698940;88;20481;-77
2021/07/29 14:03:38;;;;;;;2.92;1.00;;;23.20;90.20;;;;;;6698823;88;20289;-76
2021/07/29 14:13:39;;;;;;;6.53;1.42;;;24.80;85.80;;;;;;6698032;88;20692;-77
2021/07/29 14:33:43;;;;;;;2.00;1.10;;;23.10;89.10;;;;;;6719418;88;20218;-85
2021/07/29 14:43:44;;;;;;;3.62;1.33;;;23.30;89.10;;;;;;6717775;88;20462;-82
2021/07/29 14:53:45;;;;;;;3.20;1.27;;;22.90;90.70;;;;;;6712922;88;20194;-82
2021/07/29 16:15:44;;;;;;;2.87;1.12;;;23.00;90.00;;;;;;6734926;88;20198;-84
2021/07/29 16:25:44;;;;;;;3.58;0.95;;;23.10;90.20;;;;;;6640710;88;20246;-82
2021/07/29 16:35:44;;;;;;;3.55;1.10;;;23.00;90.70;;;;;;6640513;89;20201;-82
2021/07/29 16:45:45;;;;;;;2.53;1.20;;;22.70;90.40;;;;;;6645198;88;20195;-84
2021/07/29 16:55:45;;;;;;;3.15;1.25;;;22.40;90.90;;;;;;6647927;88;20153;-85
2021/07/29 17:06:06;;;;;;;3.45;1.12;;;22.10;91.30;;;;;;6793349;77;20165;-85
2021/07/29 17:16:07;;;;;;;4.25;1.55;;;21.90;91.90;;;;;;6749408;88;20178;-84
2021/07/29 17:26:09;;;;;;;4.78;1.35;;;22.60;91.30;;;;;;6747792;88;20707;-85
2021/07/29 17:36:13;;;;;;;6.55;1.52;;;22.60;91.20;;;;;;6749521;88;20279;-82
2021/07/29 17:46:14;;;;;;;3.45;1.23;;;23.30;91.10;;;;;;6708150;88;20186;-82
2021/07/29 17:56:14;;;;;;;5.45;1.00;;;22.30;92.70;;;;;;6705465;88;20610;-82
2021/07/29 18:06:20;;;;;;;2.90;1.10;;;22.40;92.90;;;;;;6738202;88;20175;-82
2021/07/29 18:16:21;;;;;;;3.00;1.10;;;21.70;93.30;;;;;;6742371;88;20269;-82
2021/07/29 18:26:21;;;;;;;3.70;1.30;;;21.50;94.00;;;;;;6743308;88;20192;-82
2021/07/29 18:36:22;;;;;;;3.30;1.40;;;21.60;94.20;;;;;;6742314;88;20503;-82
2021/07/29 18:46:22;;;;;;;4.35;1.25;;;21.20;95.00;;;;;;6738079;88;20604;-82
2021/07/29 18:56:23;;;;;;;1.92;1.23;;;21.10;96.00;;;;;;6738526;88;20212;-82
2021/07/29 19:06:24;;;;;;;3.12;1.30;;;21.00;96.20;;;;;;6734715;88;20229;-82
2021/07/29 19:16:25;;;;;;;4.65;2.20;;;20.80;97.20;;;;;;6745108;88;20287;-82
2021/07/29 19:26:26;;;;;;;6.65;3.45;;;20.60;98.20;;;;;;6745891;88;20211;-82
2021/07/29 19:36:26;;;;;;;6.62;3.08;;;20.10;99.90;;;;;;6745396;88;20210;-81
2021/07/29 19:46:27;;;;;;;7.68;3.15;;;19.90;99.90;;;;;;6747355;88;20166;-84
2021/07/29 19:56:27;;;;;;;4.00;2.37;;;19.60;99.90;;;;;;6752757;88;20158;-85
2021/07/29 20:06:28;;;;;;;7.22;2.00;;;19.40;99.90;;;;;;6748791;88;20201;-86
2021/07/29 20:16:29;;;;;;;5.47;1.50;;;19.30;99.90;;;;;;6752297;88;21149;-85
2021/07/29 20:26:50;;;;;;;2.58;1.48;;;19.30;99.90;;;;;;6641650;79;20247;-77
2021/07/29 20:36:50;;;;;;;6.28;1.60;;;18.80;99.90;;;;;;6722625;88;20193;-77
2021/07/29 20:46:51;;;;;;;4.62;1.70;;;18.50;99.90;;;;;;6722774;88;20312;-77
2021/07/29 20:56:51;;;;;;;4.97;1.58;;;18.40;99.90;;;;;;6721574;88;20642;-77
2021/07/29 21:06:52;;;;;;;4.72;1.52;;;18.20;99.90;;;;;;6721808;88;20212;-77
2021/07/29 21:16:52;;;;;;;4.32;1.77;;;18.10;99.90;;;;;;6722175;88;20182;-77
2021/07/29 21:26:53;;;;;;;4.10;1.70;;;18.20;99.90;;;;;;6703949;88;20193;-76
2021/07/29 21:36:53;;;;;;;3.28;1.50;;;18.00;99.90;;;;;;6703213;88;20201;-76
2021/07/29 21:46:54;;;;;;;2.97;1.37;;;18.00;99.90;;;;;;6710169;88;20194;-78
2021/07/29 21:56:56;;;;;;;4.62;1.90;;;17.90;99.90;;;;;;6713312;88;20230;-76
2021/07/29 22:06:56;;;;;;;4.18;1.62;;;17.80;99.90;;;;;;6718260;88;20236;-77
2021/07/29 22:16:57;;;;;;;5.78;2.15;;;17.90;99.90;;;;;;6719617;88;20226;-76
2021/07/29 22:26:57;;;;;;;2.83;1.80;;;17.60;99.90;;;;;;6717472;88;20274;-76
2021/07/29 22:36:58;;;;;;;3.97;1.93;;;17.30;99.90;;;;;;6717544;88;20641;-77
2021/07/29 22:46:59;;;;;;;3.28;1.80;;;17.10;99.90;;;;;;6725985;88;20185;-76
2021/07/29 22:56:59;;;;;;;6.72;2.42;;;16.90;99.90;;;;;;6720286;88;20195;-77
2021/07/29 23:07:00;;;;;;;5.40;2.80;;;16.70;99.90;;;;;;6740085;88;20193;-77
2021/07/29 23:17:00;;;;;;;5.07;2.25;;;16.60;99.90;;;;;;6722566;88;20193;-77
2021/07/29 23:37:20;;;;;;;3.42;1.80;;;16.40;99.90;;;;;;6712714;88;20289;-76
2021/07/29 23:47:21;;;;;;;2.87;1.80;;;16.30;99.90;;;;;;6708008;88;20355;-77
2021/07/29 23:57:22;;;;;;;5.28;2.30;;;16.20;99.90;;;;;;6703835;88;20568;-77
